createdAt,value
2019-03-23T00:00:39.969Z,3.02
2019-03-23T00:03:06.858Z,2.99
2019-03-23T00:05:33.659Z,3.00
2019-03-23T00:08:00.415Z,3.01
2019-03-23T00:10:27.316Z,3.02
2019-03-23T00:12:54.096Z,3.01
2019-03-23T00:15:20.870Z,3.01
2019-03-23T00:17:47.785Z,2.95
2019-03-23T00:20:15.041Z,2.90
2019-03-23T00:22:41.801Z,2.80
2019-03-23T00:25:08.807Z,2.75
2019-03-23T00:27:35.592Z,2.68
2019-03-23T00:30:09.816Z,2.61
2019-03-23T00:32:36.578Z,2.62
2019-03-23T00:35:05.449Z,2.58
2019-03-23T00:37:32.378Z,2.54
2019-03-23T00:39:59.161Z,2.50
2019-03-23T00:42:25.908Z,2.45
2019-03-23T00:44:52.792Z,2.47
2019-03-23T00:47:19.554Z,2.47
2019-03-23T00:49:46.343Z,2.41
2019-03-23T00:52:13.244Z,2.39
2019-03-23T00:54:39.998Z,2.32
2019-03-23T00:57:06.786Z,2.36
2019-03-23T00:59:33.586Z,2.30
2019-03-23T01:02:00.400Z,2.26
2019-03-23T01:04:27.279Z,2.18
2019-03-23T01:06:54.049Z,2.22
2019-03-23T01:09:20.818Z,2.18
2019-03-23T01:11:48.178Z,2.18
2019-03-23T01:14:14.952Z,2.18
2019-03-23T01:16:41.698Z,2.22
2019-03-23T01:19:08.519Z,2.20
2019-03-23T01:21:35.301Z,2.14
2019-03-23T01:24:02.207Z,2.09
2019-03-23T01:26:28.937Z,2.10
2019-03-23T01:28:55.657Z,2.05
2019-03-23T01:31:22.456Z,1.99
2019-03-23T01:33:49.289Z,2.02
2019-03-23T01:36:16.183Z,2.01
2019-03-23T01:38:42.950Z,1.99
2019-03-23T01:41:09.681Z,2.02
2019-03-23T01:43:36.564Z,2.01
2019-03-23T01:46:03.306Z,1.99
2019-03-23T01:48:30.067Z,1.98
2019-03-23T01:50:57.000Z,1.94
2019-03-23T01:53:23.769Z,1.91
2019-03-23T01:55:50.530Z,1.91
2019-03-23T01:58:17.445Z,1.92
2019-03-23T02:00:44.194Z,1.94
2019-03-23T02:03:11.015Z,1.89
2019-03-23T02:05:37.920Z,1.84
2019-03-23T02:08:04.693Z,1.83
2019-03-23T02:10:31.461Z,1.86
2019-03-23T02:12:58.368Z,1.87
2019-03-23T02:15:25.145Z,1.83
2019-03-23T02:17:51.905Z,1.82
2019-03-23T02:20:18.906Z,1.80
2019-03-23T02:22:45.651Z,1.72
2019-03-23T02:25:12.408Z,1.74
2019-03-23T02:27:39.234Z,1.73
2019-03-23T02:30:09.529Z,1.71
2019-03-23T02:32:36.498Z,1.70
2019-03-23T02:35:06.168Z,1.68
2019-03-23T02:37:32.946Z,1.65
2019-03-23T02:39:59.852Z,1.59
2019-03-23T02:42:26.635Z,1.54
2019-03-23T02:44:53.392Z,1.55
2019-03-23T02:47:20.312Z,1.54
2019-03-23T02:49:47.095Z,1.56
2019-03-23T02:52:13.871Z,1.51
2019-03-23T02:54:40.802Z,1.51
2019-03-23T02:57:07.562Z,1.51
2019-03-23T02:59:34.322Z,1.49
2019-03-23T03:02:01.210Z,1.43
2019-03-23T03:04:28.024Z,1.44
2019-03-23T03:06:54.808Z,1.48
2019-03-23T03:09:21.651Z,1.46
2019-03-23T03:11:48.407Z,1.42
2019-03-23T03:14:15.147Z,1.41
2019-03-23T03:16:42.051Z,1.38
2019-03-23T03:19:08.776Z,1.39
2019-03-23T03:21:35.518Z,1.39
2019-03-23T03:24:02.405Z,1.36
2019-03-23T03:26:29.129Z,1.37
2019-03-23T03:28:55.856Z,1.36
2019-03-23T03:31:22.731Z,1.40
2019-03-23T03:33:49.473Z,1.39
2019-03-23T03:36:16.207Z,1.36
2019-03-23T03:38:42.998Z,1.32
2019-03-23T03:41:09.723Z,1.32
2019-03-23T03:43:36.606Z,1.28
2019-03-23T03:46:03.437Z,1.27
2019-03-23T03:48:30.155Z,1.26
2019-03-23T03:50:57.051Z,1.26
2019-03-23T03:53:23.770Z,1.23
2019-03-23T03:55:50.472Z,1.22
2019-03-23T03:58:17.359Z,1.20
2019-03-23T04:00:44.095Z,1.21
2019-03-23T04:03:10.886Z,1.22
2019-03-23T04:05:37.769Z,1.32
2019-03-23T04:08:11.312Z,1.34
2019-03-23T04:10:33.080Z,1.33
2019-03-23T04:12:59.874Z,1.33
2019-03-23T04:15:26.596Z,1.38
2019-03-23T04:17:53.472Z,1.42
2019-03-23T04:20:20.221Z,1.40
2019-03-23T04:22:46.945Z,1.38
2019-03-23T04:25:13.871Z,1.40
2019-03-23T04:27:40.604Z,1.42
2019-03-23T04:30:10.847Z,1.42
2019-03-23T04:32:37.642Z,1.40
2019-03-23T04:35:05.563Z,1.38
2019-03-23T04:37:32.467Z,1.33
2019-03-23T04:39:59.208Z,1.34
2019-03-23T04:42:25.975Z,1.34
2019-03-23T04:44:52.865Z,1.33
2019-03-23T04:47:19.595Z,1.35
2019-03-23T04:49:46.949Z,1.30
2019-03-23T04:52:13.814Z,1.23
2019-03-23T04:54:40.550Z,1.20
2019-03-23T04:57:07.290Z,1.20
2019-03-23T04:59:34.055Z,1.21
2019-03-23T05:02:00.822Z,1.24
2019-03-23T05:04:27.759Z,1.27
2019-03-23T05:06:54.512Z,1.27
2019-03-23T05:09:21.256Z,1.25
2019-03-23T05:11:48.105Z,1.26
2019-03-23T05:14:14.852Z,1.28
2019-03-23T05:16:41.735Z,1.30
2019-03-23T05:19:08.494Z,1.29
2019-03-23T05:21:35.218Z,1.26
2019-03-23T05:24:02.069Z,1.21
2019-03-23T05:26:28.857Z,1.25
2019-03-23T05:28:55.539Z,1.27
2019-03-23T05:31:22.401Z,1.26
2019-03-23T05:33:49.180Z,1.29
2019-03-23T05:36:15.926Z,1.23
2019-03-23T05:38:44.615Z,1.17
2019-03-23T05:41:11.219Z,1.14
2019-03-23T05:43:38.195Z,1.11
2019-03-23T05:46:04.955Z,1.04
2019-03-23T05:48:31.708Z,0.98
2019-03-23T05:50:58.562Z,1.01
2019-03-23T05:53:25.299Z,1.05
2019-03-23T05:55:52.041Z,1.05
2019-03-23T05:58:18.874Z,1.01
2019-03-23T06:00:45.608Z,0.96
2019-03-23T06:03:12.347Z,0.89
2019-03-23T06:05:39.259Z,0.86
2019-03-23T06:08:06.004Z,0.83
2019-03-23T06:10:32.726Z,0.87
2019-03-23T06:12:59.507Z,0.92
2019-03-23T06:15:26.264Z,0.99
2019-03-23T06:17:53.134Z,1.09
2019-03-23T06:20:19.843Z,1.18
2019-03-23T06:22:46.569Z,1.20
2019-03-23T06:25:13.447Z,1.11
2019-03-23T06:27:40.177Z,1.13
2019-03-23T06:30:10.218Z,1.17
2019-03-23T06:32:37.089Z,1.27
2019-03-23T06:35:05.223Z,1.38
2019-03-23T06:37:31.959Z,1.52
2019-03-23T06:39:58.739Z,1.61
2019-03-23T06:42:25.482Z,1.73
2019-03-23T06:44:52.229Z,1.85
2019-03-23T06:47:19.149Z,1.94
2019-03-23T06:49:45.898Z,2.03
2019-03-23T06:52:12.630Z,2.12
2019-03-23T06:54:39.527Z,2.24
2019-03-23T06:57:06.248Z,2.33
2019-03-23T06:59:32.996Z,2.41
2019-03-23T07:01:59.879Z,2.50
2019-03-23T07:04:26.896Z,2.61
2019-03-23T07:06:53.684Z,2.78
2019-03-23T07:09:20.564Z,2.93
2019-03-23T07:11:47.308Z,3.09
2019-03-23T07:14:14.036Z,3.22
2019-03-23T07:16:40.974Z,3.33
2019-03-23T07:19:07.669Z,3.41
2019-03-23T07:21:34.572Z,3.50
2019-03-23T07:24:01.293Z,3.60
2019-03-23T07:26:28.034Z,3.72
2019-03-23T07:28:54.892Z,3.79
2019-03-23T07:31:21.626Z,3.90
2019-03-23T07:33:48.356Z,3.98
2019-03-23T07:36:15.140Z,4.08
2019-03-23T07:38:41.873Z,4.16
2019-03-23T07:41:08.762Z,4.24
2019-03-23T07:43:35.507Z,4.37
2019-03-23T07:46:02.233Z,4.44
2019-03-23T07:48:29.226Z,4.55
2019-03-23T07:50:56.127Z,4.61
2019-03-23T07:53:22.875Z,4.73
2019-03-23T07:55:49.858Z,4.86
2019-03-23T07:58:16.602Z,4.97
2019-03-23T08:00:43.343Z,5.06
2019-03-23T08:03:10.205Z,5.15
2019-03-23T08:05:36.937Z,5.29
2019-03-23T08:08:03.743Z,5.36
2019-03-23T08:10:32.114Z,5.45
2019-03-23T08:12:59.240Z,5.57
2019-03-23T08:15:25.986Z,5.63
2019-03-23T08:17:53.162Z,5.76
2019-03-23T08:20:19.880Z,5.86
2019-03-23T08:22:46.921Z,5.99
2019-03-23T08:25:13.816Z,6.07
2019-03-23T08:27:41.677Z,6.19
2019-03-23T08:30:08.671Z,6.28
2019-03-23T08:32:35.408Z,6.41
2019-03-23T08:35:03.128Z,6.55
2019-03-23T08:37:30.039Z,6.66
2019-03-23T08:39:56.799Z,6.70
2019-03-23T08:42:23.539Z,6.80
2019-03-23T08:44:50.316Z,6.92
2019-03-23T08:47:17.066Z,7.07
2019-03-23T08:49:43.977Z,7.20
2019-03-23T08:52:10.729Z,7.27
2019-03-23T08:54:37.487Z,7.39
2019-03-23T08:57:04.370Z,7.49
2019-03-23T08:59:31.229Z,7.51
2019-03-23T09:01:58.404Z,7.65
2019-03-23T09:04:26.011Z,7.76
2019-03-23T09:06:52.797Z,7.90
2019-03-23T09:09:19.620Z,7.95
2019-03-23T09:11:46.526Z,8.11
2019-03-23T09:14:13.260Z,8.23
2019-03-23T09:16:40.023Z,8.35
2019-03-23T09:19:06.839Z,8.41
2019-03-23T09:21:33.566Z,8.46
2019-03-23T09:24:00.437Z,8.52
2019-03-23T09:26:27.183Z,8.60
2019-03-23T09:28:53.931Z,8.70
2019-03-23T09:31:20.809Z,8.79
2019-03-23T09:33:47.578Z,8.85
2019-03-23T09:36:14.303Z,8.98
2019-03-23T09:38:41.175Z,9.01
2019-03-23T09:41:07.917Z,9.14
2019-03-23T09:43:34.667Z,9.24
2019-03-23T09:46:01.444Z,9.36
2019-03-23T09:48:28.185Z,9.47
2019-03-23T09:50:55.182Z,9.40
2019-03-23T09:53:21.926Z,9.49
2019-03-23T09:55:48.674Z,9.52
2019-03-23T09:58:15.470Z,9.59
2019-03-23T10:00:42.212Z,9.67
2019-03-23T10:03:09.098Z,9.74
2019-03-23T10:05:36.818Z,9.80
2019-03-23T10:08:03.588Z,9.92
2019-03-23T10:10:30.473Z,10.04
2019-03-23T10:12:57.219Z,10.13
2019-03-23T10:15:24.370Z,10.22
2019-03-23T10:17:51.148Z,10.29
2019-03-23T10:20:17.944Z,10.30
2019-03-23T10:22:44.842Z,10.46
2019-03-23T10:25:11.583Z,10.55
2019-03-23T10:27:38.302Z,10.59
2019-03-23T10:30:07.684Z,10.75
2019-03-23T10:32:34.432Z,10.90
2019-03-23T10:35:01.285Z,11.04
2019-03-23T10:37:28.032Z,11.21
2019-03-23T10:39:54.775Z,11.38
2019-03-23T10:42:21.669Z,11.61
2019-03-23T10:44:48.431Z,11.93
2019-03-23T10:47:15.175Z,12.45
2019-03-23T10:49:41.966Z,13.33
2019-03-23T10:52:08.730Z,14.57
2019-03-23T10:54:35.626Z,15.92
2019-03-23T10:57:02.474Z,17.13
2019-03-23T10:59:29.211Z,18.24
2019-03-23T11:01:55.975Z,19.23
2019-03-23T11:04:22.725Z,20.09
2019-03-23T11:06:49.487Z,20.81
2019-03-23T11:09:16.304Z,21.49
2019-03-23T11:11:43.060Z,22.07
2019-03-23T11:14:09.944Z,22.46
2019-03-23T11:16:36.709Z,22.84
2019-03-23T11:19:09.565Z,23.20
2019-03-23T11:21:32.157Z,23.02
2019-03-23T11:23:58.924Z,22.67
2019-03-23T11:26:25.674Z,22.83
2019-03-23T11:28:52.584Z,22.88
2019-03-23T11:31:19.328Z,22.81
2019-03-23T11:33:46.064Z,23.03
2019-03-23T11:36:12.939Z,23.07
2019-03-23T11:38:39.666Z,23.02
2019-03-23T11:41:06.402Z,22.98
2019-03-23T11:43:33.298Z,23.31
2019-03-23T11:46:00.036Z,23.07
2019-03-23T11:48:26.777Z,22.78
2019-03-23T11:50:53.568Z,22.70
2019-03-23T11:53:20.314Z,22.64
2019-03-23T11:55:47.363Z,22.77
2019-03-23T11:58:14.073Z,23.02
2019-03-23T12:00:40.804Z,23.38
2019-03-23T12:03:07.716Z,23.34
2019-03-23T12:05:34.483Z,23.29
2019-03-23T12:08:01.278Z,23.17
2019-03-23T12:10:28.053Z,22.84
2019-03-23T12:12:54.793Z,22.78
2019-03-23T12:15:21.703Z,22.67
2019-03-23T12:17:48.460Z,22.54
2019-03-23T12:20:15.176Z,22.30
2019-03-23T12:22:46.957Z,22.18
2019-03-23T12:25:14.261Z,22.10
2019-03-23T12:27:41.009Z,21.86
2019-03-23T12:30:16.722Z,21.81
2019-03-23T12:32:43.505Z,21.73
2019-03-23T12:35:10.335Z,21.52
2019-03-23T12:37:37.310Z,21.30
2019-03-23T12:40:06.383Z,21.24
2019-03-23T12:42:33.140Z,21.12
2019-03-23T12:44:59.936Z,21.02
2019-03-23T12:47:26.724Z,21.05
2019-03-23T12:49:53.608Z,21.11
2019-03-23T12:52:20.434Z,21.12
2019-03-23T12:54:47.252Z,21.12
2019-03-23T12:57:14.236Z,21.02
2019-03-23T12:59:41.006Z,20.78
2019-03-23T13:02:07.754Z,20.83
2019-03-23T13:04:34.761Z,20.89
2019-03-23T13:07:01.499Z,20.79
2019-03-23T13:09:28.319Z,20.85
2019-03-23T13:11:55.188Z,20.87
2019-03-23T13:14:21.962Z,20.91
2019-03-23T13:16:48.728Z,20.80
2019-03-23T13:19:15.514Z,20.54
2019-03-23T13:21:42.254Z,20.51
2019-03-23T13:24:09.014Z,20.49
2019-03-23T13:26:35.894Z,20.11
2019-03-23T13:29:02.627Z,20.16
2019-03-23T13:31:29.363Z,20.11
2019-03-23T13:33:56.225Z,20.00
2019-03-23T13:36:22.954Z,19.95
2019-03-23T13:38:49.716Z,19.94
2019-03-23T13:41:16.507Z,19.82
2019-03-23T13:43:43.253Z,19.68
2019-03-23T13:46:10.119Z,19.51
2019-03-23T13:48:36.870Z,19.07
2019-03-23T13:51:03.582Z,19.13
2019-03-23T13:53:30.485Z,18.92
2019-03-23T13:55:57.196Z,18.84
2019-03-23T13:58:23.917Z,18.90
2019-03-23T14:00:50.807Z,18.92
2019-03-23T14:03:17.565Z,19.15
2019-03-23T14:05:44.414Z,19.11
2019-03-23T14:08:11.291Z,19.06
2019-03-23T14:10:38.093Z,18.81
2019-03-23T14:13:04.828Z,18.61
2019-03-23T14:15:31.692Z,18.85
2019-03-23T14:17:58.435Z,18.99
2019-03-23T14:20:25.177Z,19.22
2019-03-23T14:22:51.964Z,19.57
2019-03-23T14:25:18.692Z,19.58
2019-03-23T14:27:45.583Z,19.69
2019-03-23T14:30:12.320Z,19.52
2019-03-23T14:32:39.031Z,19.16
2019-03-23T14:35:06.624Z,19.32
2019-03-23T14:37:33.395Z,19.68
2019-03-23T14:40:00.278Z,19.88
2019-03-23T14:42:27.036Z,20.14
2019-03-23T14:44:53.779Z,20.32
2019-03-23T14:47:20.566Z,20.27
2019-03-23T14:49:47.416Z,19.96
2019-03-23T14:52:15.215Z,19.76
2019-03-23T14:54:41.975Z,19.53
2019-03-23T14:57:08.772Z,19.42
2019-03-23T14:59:35.553Z,19.50
2019-03-23T15:02:02.392Z,19.72
2019-03-23T15:04:29.126Z,19.56
2019-03-23T15:06:56.057Z,19.40
2019-03-23T15:09:22.915Z,19.38
2019-03-23T15:11:49.680Z,19.47
2019-03-23T15:14:16.399Z,19.40
2019-03-23T15:16:43.280Z,19.27
2019-03-23T15:19:09.994Z,19.26
2019-03-23T15:21:36.717Z,19.04
2019-03-23T15:24:03.499Z,18.89
2019-03-23T15:26:30.376Z,18.89
2019-03-23T15:28:57.283Z,18.77
2019-03-23T15:31:24.026Z,18.78
2019-03-23T15:33:50.750Z,18.97
2019-03-23T15:36:17.729Z,19.28
2019-03-23T15:38:44.470Z,19.18
2019-03-23T15:41:11.212Z,19.14
2019-03-23T15:43:38.076Z,19.05
2019-03-23T15:46:04.826Z,18.72
2019-03-23T15:48:31.568Z,18.18
2019-03-23T15:50:58.420Z,17.64
2019-03-23T15:53:25.150Z,17.32
2019-03-23T15:55:51.979Z,17.15
2019-03-23T15:58:18.754Z,17.04
2019-03-23T16:00:45.530Z,16.85
2019-03-23T16:03:12.385Z,16.63
2019-03-23T16:05:39.130Z,16.14
2019-03-23T16:08:05.865Z,15.65
2019-03-23T16:10:32.630Z,15.21
2019-03-23T16:12:59.430Z,14.77
2019-03-23T16:15:26.291Z,14.38
2019-03-23T16:17:53.190Z,13.96
2019-03-23T16:20:19.925Z,13.78
2019-03-23T16:22:46.924Z,13.61
2019-03-23T16:25:13.691Z,13.44
2019-03-23T16:27:40.528Z,13.28
2019-03-23T16:30:09.994Z,13.13
2019-03-23T16:32:36.891Z,12.90
2019-03-23T16:35:06.271Z,12.68
2019-03-23T16:37:33.137Z,12.51
2019-03-23T16:39:59.983Z,12.36
2019-03-23T16:42:26.852Z,12.23
2019-03-23T16:44:53.587Z,12.09
2019-03-23T16:47:20.462Z,11.98
2019-03-23T16:49:47.211Z,11.88
2019-03-23T16:52:13.935Z,11.81
2019-03-23T16:54:40.962Z,11.69
2019-03-23T16:57:07.631Z,11.58
2019-03-23T16:59:34.367Z,11.53
2019-03-23T17:02:01.263Z,11.46
2019-03-23T17:04:27.986Z,11.31
2019-03-23T17:06:54.719Z,11.22
2019-03-23T17:09:21.605Z,11.11
2019-03-23T17:11:48.383Z,11.00
2019-03-23T17:14:15.168Z,10.88
2019-03-23T17:16:41.965Z,10.80
2019-03-23T17:19:08.672Z,10.69
2019-03-23T17:21:35.553Z,10.60
2019-03-23T17:24:02.635Z,10.50
2019-03-23T17:26:29.371Z,10.39
2019-03-23T17:28:56.158Z,10.29
2019-03-23T17:31:22.891Z,10.20
2019-03-23T17:33:49.768Z,10.13
2019-03-23T17:36:17.002Z,10.05
2019-03-23T17:38:43.732Z,9.96
2019-03-23T17:41:10.625Z,9.85
2019-03-23T17:43:37.358Z,9.80
2019-03-23T17:46:04.212Z,9.70
2019-03-23T17:48:30.970Z,9.63
2019-03-23T17:50:57.695Z,9.55
2019-03-23T17:53:24.482Z,9.46
2019-03-23T17:55:51.208Z,9.41
2019-03-23T17:58:18.080Z,9.33
2019-03-23T18:00:44.828Z,9.28
2019-03-23T18:03:11.558Z,9.27
2019-03-23T18:05:38.477Z,9.20
2019-03-23T18:08:05.232Z,9.12
2019-03-23T18:10:33.243Z,9.06
2019-03-23T18:13:00.030Z,9.01
2019-03-23T18:15:26.803Z,8.95
2019-03-23T18:17:53.648Z,8.90
2019-03-23T18:20:20.401Z,8.83
2019-03-23T18:22:47.140Z,8.77
2019-03-23T18:25:14.897Z,8.74
2019-03-23T18:27:41.634Z,8.68
2019-03-23T18:30:28.417Z,8.57
2019-03-23T18:32:55.149Z,8.54
2019-03-23T18:35:21.961Z,8.47
2019-03-23T18:37:48.859Z,8.42
2019-03-23T18:40:15.595Z,8.37
2019-03-23T18:42:42.432Z,8.37
2019-03-23T18:45:09.278Z,8.29
2019-03-23T18:47:36.342Z,8.24
2019-03-23T18:50:07.541Z,8.21
2019-03-23T18:52:34.353Z,8.12
2019-03-23T18:55:01.074Z,8.09
2019-03-23T18:57:27.928Z,8.12
2019-03-23T18:59:54.695Z,8.09
2019-03-23T19:02:21.592Z,8.01
2019-03-23T19:04:49.716Z,7.96
2019-03-23T19:07:16.539Z,7.88
2019-03-23T19:09:43.268Z,7.83
2019-03-23T19:12:10.162Z,7.80
2019-03-23T19:14:37.231Z,7.70
2019-03-23T19:17:03.959Z,7.62
2019-03-23T19:19:30.981Z,7.54
2019-03-23T19:21:57.683Z,7.47
2019-03-23T19:24:24.395Z,7.44
2019-03-23T19:26:51.275Z,7.42
2019-03-23T19:29:20.087Z,7.33
2019-03-23T19:31:46.651Z,7.30
2019-03-23T19:34:13.552Z,7.23
2019-03-23T19:36:40.294Z,7.16
2019-03-23T19:39:07.315Z,7.12
2019-03-23T19:41:34.187Z,7.04
2019-03-23T19:44:01.029Z,7.03
2019-03-23T19:46:27.748Z,7.02
2019-03-23T19:48:54.715Z,6.96
2019-03-23T19:51:21.438Z,6.93
2019-03-23T19:53:48.323Z,6.86
2019-03-23T19:56:15.048Z,6.84
2019-03-23T19:58:41.795Z,6.77
2019-03-23T20:01:08.664Z,6.73
2019-03-23T20:03:35.450Z,6.69
2019-03-23T20:06:02.154Z,6.63
2019-03-23T20:08:30.491Z,6.64
2019-03-23T20:10:57.224Z,6.65
2019-03-23T20:13:24.095Z,6.61
2019-03-23T20:15:50.866Z,6.58
2019-03-23T20:18:17.590Z,6.51
2019-03-23T20:20:44.482Z,6.47
2019-03-23T20:23:11.251Z,6.43
2019-03-23T20:25:39.668Z,6.42
2019-03-23T20:28:06.651Z,6.39
2019-03-23T20:30:33.383Z,6.34
2019-03-23T20:33:00.125Z,6.30
2019-03-23T20:35:27.021Z,6.27
2019-03-23T20:37:53.778Z,6.24
2019-03-23T20:40:20.579Z,6.21
2019-03-23T20:42:49.020Z,6.20
2019-03-23T20:45:24.111Z,6.24
2019-03-23T20:47:50.996Z,6.27
2019-03-23T20:50:17.729Z,6.26
2019-03-23T20:52:45.058Z,6.22
2019-03-23T20:55:28.139Z,6.15
2019-03-23T20:57:54.977Z,6.05
2019-03-23T21:00:21.722Z,5.94
2019-03-23T21:02:48.903Z,5.86
2019-03-23T21:05:15.623Z,5.88
2019-03-23T21:07:42.508Z,5.87
2019-03-23T21:10:09.315Z,5.88
2019-03-23T21:12:36.067Z,5.85
2019-03-23T21:15:04.511Z,5.79
2019-03-23T21:17:31.282Z,5.75
2019-03-23T21:19:57.994Z,5.66
2019-03-23T21:22:24.875Z,5.61
2019-03-23T21:24:51.592Z,5.54
2019-03-23T21:27:18.346Z,5.52
2019-03-23T21:29:45.129Z,5.44
2019-03-23T21:32:11.852Z,5.42
2019-03-23T21:34:38.727Z,5.39
2019-03-23T21:37:05.477Z,5.37
2019-03-23T21:39:32.212Z,5.34
2019-03-23T21:41:59.001Z,5.31
2019-03-23T21:44:30.977Z,5.25
2019-03-23T21:46:54.368Z,5.24
2019-03-23T21:49:21.081Z,5.16
2019-03-23T21:51:47.805Z,5.12
2019-03-23T21:54:14.586Z,5.09
2019-03-23T21:56:41.323Z,5.10
2019-03-23T21:59:08.200Z,5.10
2019-03-23T22:01:34.928Z,5.05
2019-03-23T22:04:01.654Z,5.08
2019-03-23T22:06:28.519Z,5.04
2019-03-23T22:08:55.267Z,5.01
2019-03-23T22:11:21.977Z,5.00
2019-03-23T22:13:48.854Z,4.98
2019-03-23T22:16:15.579Z,4.96
2019-03-23T22:18:42.360Z,4.94
2019-03-23T22:21:09.217Z,4.97
2019-03-23T22:23:35.936Z,5.05
2019-03-23T22:26:02.671Z,5.08
2019-03-23T22:28:29.543Z,5.08
2019-03-23T22:30:56.281Z,5.13
2019-03-23T22:33:22.991Z,5.20
2019-03-23T22:35:49.867Z,5.23
2019-03-23T22:38:16.624Z,5.23
2019-03-23T22:40:43.336Z,5.20
2019-03-23T22:43:10.100Z,5.17
2019-03-23T22:45:36.847Z,5.23
2019-03-23T22:48:03.691Z,5.23
2019-03-23T22:50:30.421Z,5.17
2019-03-23T22:52:57.150Z,5.13
2019-03-23T22:55:23.933Z,4.99
2019-03-23T22:57:50.686Z,4.95
2019-03-23T23:00:18.715Z,4.85
2019-03-23T23:02:45.691Z,4.77
2019-03-23T23:05:12.502Z,4.72
2019-03-23T23:07:39.336Z,4.69
2019-03-23T23:10:07.206Z,4.60
2019-03-23T23:12:33.951Z,4.52
2019-03-23T23:15:04.604Z,4.47
2019-03-23T23:17:29.250Z,4.45
2019-03-23T23:19:56.033Z,4.38
2019-03-23T23:22:22.896Z,4.30
2019-03-23T23:24:49.624Z,4.27
2019-03-23T23:27:16.360Z,4.28
2019-03-23T23:29:43.142Z,4.25
2019-03-23T23:32:09.873Z,4.19
2019-03-23T23:34:36.616Z,4.19
2019-03-23T23:37:03.463Z,4.20
2019-03-23T23:39:30.190Z,4.17
2019-03-23T23:41:56.904Z,4.19
2019-03-23T23:44:23.787Z,4.13
2019-03-23T23:46:50.495Z,4.12
2019-03-23T23:49:17.232Z,4.13
2019-03-23T23:51:50.192Z,4.08
2019-03-23T23:54:12.613Z,4.05
2019-03-23T23:56:39.452Z,4.04
2019-03-23T23:59:06.242Z,4.05
